Flight Track Log - Related Links

Times and Time Zones

All times are in EDT time to prevent confusion due to time zone crossing. See the UAL709 flight status page for this flight to view local times or setup timezone preferences in your user account.

Time Position Orientation Groundspeed Altitude Reporting Facility
EDT Latitude Longitude Course Direction KTS MPH feet Rate Location/Type
Tue 09:25:56 AM 42.0000 -87.9500 334° Northwest 173 199 1,900  Level Chicago TRACON
Tue 09:26:56 AM 42.0500 -87.9833 334° Northwest 202 232 3,900 2,190 Climbing Chicago TRACON
Tue 09:29:27 AM 42.0486 -88.2061 270° West 278 320 9,600 2,169 Climbing Chicago Center
Tue 09:30:29 AM 42.0089 -88.3344 247° West 311 358 11,600 2,032 Climbing Chicago Center
Tue 09:31:31 AM 41.9725 -88.4550 248° West 346 398 13,800 2,129 Climbing Chicago Center
Tue 09:32:33 AM 41.9378 -88.5783 249° West 354 407 16,000 1,920 Climbing Chicago Center
Tue 09:33:36 AM 41.9114 -88.7078 255° West 362 417 17,800 1,776 Climbing Chicago Center
Tue 09:34:38 AM 41.8997 -88.8447 264° West 372 428 19,700 1,887 Climbing Chicago Center
Tue 09:35:40 AM 41.8847 -89.0161 263° West 385 443 21,700 1,694 Climbing Chicago Center
Tue 09:36:42 AM 41.8717 -89.1592 263° West 390 449 23,200 1,355 Climbing Chicago Center
Tue 09:37:44 AM 41.8575 -89.3078 263° West 401 461 24,500 1,210 Climbing Chicago Center
Tue 09:38:46 AM 41.8358 -89.4547 259° West 403 464 25,700 1,161 Climbing Chicago Center
Tue 09:39:48 AM 41.8050 -89.6381 257° West 418 481 26,900 1,113 Climbing Chicago Center
Tue 09:40:50 AM 41.7828 -89.7914 259° West 431 496 28,000 1,065 Climbing Chicago Center
Tue 09:41:52 AM 41.7575 -89.9494 258° West 437 503 29,100 1,065 Climbing Chicago Center
Tue 09:42:54 AM 41.7328 -90.1069 258° West 437 503 30,200 1,065 Climbing Chicago Center
Tue 09:43:56 AM 41.7075 -90.2669 258° West 441 507 31,300 1,306 Climbing Chicago Center
Tue 09:44:58 AM 41.6800 -90.4292 257° West 446 513 32,900 1,306 Climbing Chicago Center
Tue 09:46:00 AM 41.6508 -90.6089 258° West 419 482 34,000 528 Climbing Chicago Center
Tue 09:47:03 AM 41.6258 -90.7567 257° West 423 487 34,000  Level Chicago Center
Tue 09:48:05 AM 41.6000 -90.9144 258° West 435 501 34,000  Level Chicago Center
Tue 09:49:07 AM 41.5733 -91.0747 258° West 441 507 34,000 -48 Level Chicago Center
Tue 09:50:09 AM 41.5414 -91.2606 257° West 434 499 33,900  Descending Chicago Center
Tue 09:51:11 AM 41.5142 -91.4158 257° West 432 497 34,000 48 Climbing Chicago Center
Tue 09:52:13 AM 41.4883 -91.5700 257° West 430 495 34,000  Level Chicago Center
Tue 09:53:15 AM 41.4614 -91.7253 257° West 431 496 34,000  Level Chicago Center
Tue 09:54:17 AM 41.4336 -91.8822 257° West 436 502 34,000 48 Level Chicago Center
Tue 09:55:19 AM 41.4006 -92.0683 257° West 434 499 34,100 48 Climbing Chicago Center
Tue 09:56:21 AM 41.3725 -92.2225 256° West 432 497 34,100 -48 Level Chicago Center
Tue 09:57:23 AM 41.3428 -92.3878 257° West 429 494 34,000 -48 Descending Chicago Center
Tue 09:58:25 AM 41.3144 -92.5347 256° West 420 483 34,000  Level Chicago Center
Tue 09:59:00 AM 41.2992 -92.6294 258° West 425 489 34,000  Level Minneapolis Center
Tue 10:00:01 AM 41.2714 -92.7792 256° West 424 488 34,000  Level Minneapolis Center
Tue 10:01:03 AM 41.2431 -92.9269 256° West 420 483 34,000  Level Minneapolis Center
Tue 10:02:05 AM 41.2156 -93.0778 256° West 423 487 34,000  Level Minneapolis Center
Tue 10:03:07 AM 41.1878 -93.2236 256° West 417 480 34,000  Level Minneapolis Center
Tue 10:04:08 AM 41.1542 -93.4000 256° West 415 478 34,000  Level Minneapolis Center
Tue 10:05:10 AM 41.1267 -93.5436 256° West 409 471 34,000  Level Minneapolis Center
Tue 10:06:12 AM 41.0994 -93.6903 256° West 412 474 34,000  Level Minneapolis Center
Tue 10:07:14 AM 41.0697 -93.8383 255° West 417 480 34,000  Level Minneapolis Center
Tue 10:08:15 AM 41.0469 -93.9561 256° West 418 481 34,000  Level Minneapolis Center
Tue 10:09:18 AM 41.0075 -94.1614 256° West 415 478 34,000  Level Minneapolis Center
Tue 10:10:20 AM 40.9772 -94.3086 255° West 417 480 34,000  Level Minneapolis Center
Tue 10:11:21 AM 40.9469 -94.4567 255° West 419 482 34,000  Level Minneapolis Center
Tue 10:12:23 AM 40.9217 -94.5733 254° West 419 482 34,000  Level Minneapolis Center
Tue 10:13:25 AM 40.8864 -94.7467 255° West 414 476 34,000  Level Minneapolis Center
Tue 10:14:39 AM 40.8506 -94.9242 255° West 415 478 34,000  Level Minneapolis Center
Tue 10:15:41 AM 40.8131 -95.1011 254° West 416 479 34,000  Level Minneapolis Center
Tue 10:16:43 AM 40.7825 -95.2472 255° West 414 476 34,000  Level Minneapolis Center
Tue 10:17:46 AM 40.7514 -95.3944 254° West 415 478 34,000  Level Minneapolis Center
Tue 10:18:48 AM 40.7203 -95.5408 254° West 413 475 34,000  Level Minneapolis Center
Tue 10:19:50 AM 40.6903 -95.6856 255° West 409 471 34,000  Level Minneapolis Center
Tue 10:20:52 AM 40.6589 -95.8319 254° West 412 474 34,000  Level Minneapolis Center
Tue 10:21:54 AM 40.6269 -95.9778 254° West 413 475 34,000  Level Minneapolis Center
Tue 10:22:56 AM 40.5892 -96.1519 254° West 411 473 34,000  Level Minneapolis Center
Tue 10:23:58 AM 40.5575 -96.2975 254° West 412 474 34,000  Level Minneapolis Center
Tue 10:25:00 AM 40.5256 -96.4425 254° West 412 474 34,000  Level Minneapolis Center
Tue 10:26:02 AM 40.4933 -96.5867 254° West 411 473 34,000  Level Minneapolis Center
Tue 10:27:04 AM 40.4611 -96.7311 254° West 411 473 34,000  Level Minneapolis Center
Tue 10:28:06 AM 40.4286 -96.8758 254° West 412 474 34,000  Level Minneapolis Center
Tue 10:29:08 AM 40.3956 -97.0208 253° West 413 475 34,000  Level Minneapolis Center
Tue 10:30:10 AM 40.3558 -97.1933 253° West 412 474 34,000  Level Minneapolis Center
Tue 10:31:12 AM 40.3222 -97.3394 253° West 416 479 34,000  Level Minneapolis Center
Tue 10:32:14 AM 40.2903 -97.4786 253° West 418 481 34,000  Level Minneapolis Center
Tue 10:33:16 AM 40.2567 -97.6231 253° West 416 479 34,000  Level Minneapolis Center
Tue 10:34:18 AM 40.2156 -97.7994 253° West 419 482 34,000  Level Minneapolis Center
Tue 10:35:20 AM 40.1808 -97.9461 253° West 420 483 34,000  Level Minneapolis Center
Tue 10:36:22 AM 40.1456 -98.0925 253° West 421 484 34,000  Level Minneapolis Center
Tue 10:37:24 AM 40.1103 -98.2394 253° West 422 486 34,000  Level Minneapolis Center
Tue 10:38:26 AM 40.0764 -98.3861 253° West 422 486 34,000  Level Minneapolis Center
Tue 10:39:28 AM 40.0408 -98.5319 252° West 421 484 34,000  Level Minneapolis Center
Tue 10:40:30 AM 40.0047 -98.6764 252° West 420 483 34,000  Level Minneapolis Center
Tue 10:41:32 AM 39.9692 -98.8228 252° West 421 484 34,000  Level Minneapolis Center
Tue 10:42:34 AM 39.9261 -99.0006 253° West 426 490 34,000  Level Minneapolis Center
Tue 10:43:41 AM 39.8886 -99.1489 252° West 433 498 34,000  Level Denver Center
Tue 10:44:43 AM 39.8517 -99.2972 252° West 432 497 34,000  Level Denver Center
Tue 10:45:45 AM 39.8142 -99.4450 252° West 430 495 34,000  Level Denver Center
Tue 10:46:47 AM 39.7694 -99.6217 252° West 429 494 34,000  Level Denver Center
Tue 10:47:49 AM 39.7319 -99.7692 252° West 428 493 34,000  Level Denver Center
Tue 10:48:51 AM 39.6942 -99.9158 252° West 429 494 34,000  Level Denver Center
Tue 10:50:05 AM 39.6547 -100.0681 251° West 429 494 34,000  Level Denver Center
Tue 10:51:07 AM 39.6067 -100.2558 252° West 429 494 34,000  Level Denver Center
Tue 10:52:09 AM 39.5694 -100.3969 251° West 431 496 34,000  Level Denver Center
Tue 10:53:11 AM 39.5261 -100.5608 251° West 431 496 34,000  Level Denver Center
Tue 10:54:13 AM 39.4883 -100.7006 251° West 429 494 34,000  Level Denver Center
Tue 10:55:15 AM 39.4511 -100.8403 251° West 428 493 34,000  Level Denver Center
Tue 10:56:17 AM 39.4072 -101.0039 251° West 431 496 34,000  Level Denver Center
Tue 10:57:19 AM 39.3706 -101.1436 251° West 429 494 34,000  Level Denver Center
Tue 10:58:21 AM 39.3264 -101.3053 251° West 427 491 34,000  Level Denver Center
Tue 10:59:23 AM 39.2892 -101.4431 251° West 427 491 34,000  Level Denver Center
Tue 11:00:25 AM 39.2475 -101.5928 250° West 429 494 34,000  Level Denver Center
Tue 11:01:39 AM 39.2022 -101.7553 250° West 432 497 34,000  Level Denver Center
Tue 11:02:42 AM 39.1517 -101.9400 251° West 431 496 34,000  Level Denver Center
Tue 11:03:44 AM 39.1131 -102.0767 250° West 427 491 34,000  Level Denver Center
Tue 11:04:46 AM 39.0686 -102.2344 250° West 421 484 34,000  Level Denver Center
Tue 11:05:48 AM 39.0314 -102.3675 250° West 415 478 34,000  Level Denver Center
Tue 11:06:50 AM 38.9922 -102.5011 249° West 417 480 34,000  Level Denver Center
Tue 11:07:52 AM 38.9483 -102.6583 250° West 420 483 34,000 48 Level Denver Center
Tue 11:08:54 AM 38.9039 -102.8133 250° West 422 486 34,100 48 Climbing Denver Center
Tue 11:09:56 AM 38.8617 -102.9547 249° West 419 482 34,100 -48 Level Denver Center
Tue 11:10:58 AM 38.8228 -103.0933 250° West 410 472 34,000 -48 Descending Denver Center
Tue 11:12:00 AM 38.7819 -103.2306 249° West 408 470 34,000  Level Denver Center
Tue 11:13:02 AM 38.7436 -103.3631 250° West 396 456 34,000 -48 Level Denver Center
Tue 11:14:04 AM 38.7025 -103.5019 249° West 397 457 33,900  Descending Denver Center
Tue 11:15:06 AM 38.6650 -103.6272 249° West 397 457 34,000 48 Climbing Denver Center
Tue 11:16:08 AM 38.6222 -103.7725 249° West 393 452 34,000  Level Denver Center
Tue 11:17:10 AM 38.5847 -103.8967 249° West 393 452 34,000  Level Denver Center
Tue 11:18:12 AM 38.5408 -104.0422 249° West 394 453 34,000  Level Denver Center
Tue 11:19:14 AM 38.5011 -104.1775 249° West 390 449 34,000  Level Denver Center
Tue 11:20:16 AM 38.4681 -104.2839 248° West 385 443 34,000  Level Denver Center
Tue 11:21:19 AM 38.4217 -104.4344 249° West 387 445 34,000  Level Denver Center
Tue 11:22:20 AM 38.3892 -104.5431 249° West 389 448 34,000  Level Denver Center
Tue 11:23:23 AM 38.3419 -104.6950 248° West 390 449 34,000 48 Level Denver Center
Tue 11:24:25 AM 38.2978 -104.8367 248° West 388 447 34,100  Climbing Denver Center
Tue 11:25:39 AM 38.2600 -104.9586 249° West 387 445 34,000 -44 Descending Denver Center
Tue 11:26:41 AM 38.2100 -105.1197 248° West 385 443 34,000  Level Denver Center
Tue 11:27:43 AM 38.1661 -105.2594 248° West 383 441 34,000  Level Denver Center
Tue 11:28:45 AM 38.1278 -105.3786 248° West 382 440 34,000  Level Denver Center
Tue 11:29:47 AM 38.0831 -105.5194 248° West 384 442 34,000  Level Denver Center
Tue 11:30:49 AM 38.0453 -105.6383 248° West 382 440 34,000  Level Denver Center
Tue 11:31:51 AM 38.0064 -105.7594 248° West 387 445 34,000  Level Denver Center
Tue 11:32:53 AM 37.9611 -105.8992 248° West 385 443 34,000  Level Denver Center
Tue 11:33:55 AM 37.9222 -106.0183 248° West 384 442 34,000  Level Denver Center
Tue 11:34:57 AM 37.8783 -106.1572 248° West 382 440 34,000  Level Denver Center
Tue 11:35:59 AM 37.8389 -106.2758 247° West 383 441 34,000  Level Denver Center
Tue 11:37:02 AM 37.7972 -106.4036 248° West 380 437 34,000 96 Level Denver Center
Tue 11:38:04 AM 37.7514 -106.5417 247° West 381 438 34,200 397 Climbing Denver Center
Tue 11:39:18 AM 37.7128 -106.6611 248° West 384 442 34,900 750 Climbing Denver Center
Tue 11:40:20 AM 37.6600 -106.8200 247° West 385 443 35,900 532 Climbing Denver Center
Tue 11:41:22 AM 37.6136 -106.9586 247° West 384 442 36,000 48 Climbing Denver Center
Tue 11:42:24 AM 37.5739 -107.0778 247° West 384 442 36,000  Level Denver Center
Tue 11:43:26 AM 37.5333 -107.1964 247° West 386 444 36,000  Level Denver Center
Tue 11:44:28 AM 37.4875 -107.3344 247° West 383 441 36,000  Level Denver Center
Tue 11:45:30 AM 37.4472 -107.4511 247° West 380 437 36,000  Level Denver Center
Tue 11:46:32 AM 37.4006 -107.5889 247° West 383 441 36,000  Level Denver Center
Tue 11:47:34 AM 37.3594 -107.7069 246° West 385 443 36,000  Level Denver Center
Tue 11:48:36 AM 37.3133 -107.8414 247° West 376 433 36,000 -48 Level Denver Center
Tue 11:49:39 AM 37.2736 -107.9572 247° West 378 435 35,900  Descending Denver Center
Tue 11:50:41 AM 37.2258 -108.0950 247° West 383 441 36,000 97 Climbing Denver Center
Tue 11:51:43 AM 37.1858 -108.2103 246° West 378 435 36,100  Climbing Denver Center
Tue 11:52:45 AM 37.1392 -108.3450 247° West 378 435 36,000 -48 Descending Denver Center
Tue 11:53:47 AM 37.0992 -108.4572 246° West 372 428 36,000  Level Denver Center
Tue 11:54:49 AM 37.0533 -108.5875 246° West 368 423 36,000  Level Denver Center
Tue 11:55:51 AM 37.0125 -108.6989 245° Southwest 368 423 36,000  Level Denver Center
Tue 11:56:53 AM 36.9664 -108.8333 247° West 375 432 36,000  Level Denver Center
Tue 11:57:55 AM 36.9256 -108.9461 246° West 374 430 36,000  Level Denver Center
Tue 11:58:57 AM 36.8783 -109.0786 246° West 374 430 36,000  Level Denver Center
Tue 11:59:59 AM 36.8386 -109.1906 246° West 371 427 36,000  Level Denver Center
Tue 12:01:01 PM 36.7914 -109.3214 246° West 372 428 36,000  Level Denver Center
Tue 12:02:03 PM 36.7503 -109.4325 245° Southwest 370 426 36,000  Level Denver Center
Tue 12:03:52 PM 36.6661 -109.6550 245° Southwest 374 430 36,000  Level Los Angeles Center
Tue 12:04:07 PM 36.6628 -109.6733 257° West 369 425 36,000  Level Denver Center
Tue 12:05:22 PM 36.6072 -109.8219 245° Southwest 371 427 36,000  Level Denver Center
Tue 12:06:24 PM 36.5672 -109.9322 246° West 367 422 36,000  Level Denver Center
Tue 12:07:26 PM 36.5203 -110.0594 245° Southwest 365 420 36,000  Level Denver Center
Tue 12:08:28 PM 36.4742 -110.1836 245° Southwest 366 421 36,000  Level Denver Center
Tue 12:09:30 PM 36.4336 -110.2975 246° West 362 417 36,000  Level Denver Center
Tue 12:10:32 PM 36.3892 -110.4136 245° Southwest 368 423 36,000  Level Denver Center
Tue 12:11:34 PM 36.3458 -110.5278 245° Southwest 368 423 36,000  Level Denver Center
Tue 12:12:36 PM 36.3033 -110.6433 245° Southwest 368 423 36,000  Level Denver Center
Tue 12:13:38 PM 36.2589 -110.7586 244° Southwest 370 426 36,000  Level Denver Center
Tue 12:14:40 PM 36.2067 -110.8972 245° Southwest 369 425 36,000  Level Denver Center
Tue 12:15:42 PM 36.1622 -111.0111 244° Southwest 369 425 36,000  Level Denver Center
Tue 12:16:44 PM 36.1286 -111.1025 246° West 366 421 36,000  Level Denver Center
Tue 12:17:46 PM 36.0750 -111.2381 244° Southwest 365 420 36,000  Level Denver Center
Tue 12:18:48 PM 36.0319 -111.3525 245° Southwest 367 422 36,000  Level Denver Center
Tue 12:19:50 PM 35.9883 -111.4644 244° Southwest 364 419 36,000 145 Level Denver Center
Tue 12:20:52 PM 35.9353 -111.5994 244° Southwest 364 419 36,300 435 Climbing Denver Center
Tue 12:21:54 PM 35.8917 -111.7133 245° Southwest 366 421 36,900 611 Climbing Denver Center
Tue 12:22:40 PM 35.8589 -111.7922 243° Southwest 367 422 37,400 611 Climbing Los Angeles Center
Tue 12:23:42 PM 35.8144 -111.9061 244° Southwest 370 426 38,000 290 Climbing Los Angeles Center
Tue 12:24:44 PM 35.7697 -112.0225 245° Southwest 375 432 38,000  Level Los Angeles Center
Tue 12:25:46 PM 35.7142 -112.1631 244° Southwest 384 442 38,000  Level Los Angeles Center
Tue 12:26:48 PM 35.6678 -112.2794 244° Southwest 382 440 38,000  Level Los Angeles Center
Tue 12:27:50 PM 35.6211 -112.3961 244° Southwest 382 440 38,000 -48 Level Los Angeles Center
Tue 12:28:52 PM 35.5756 -112.5103 244° Southwest 375 432 37,900  Descending Los Angeles Center
Tue 12:29:53 PM 35.5217 -112.6436 244° Southwest 377 434 38,000 41 Climbing Los Angeles Center
Tue 12:31:20 PM 35.4664 -112.7836 244° Southwest 380 437 38,000  Level Los Angeles Center
Tue 12:32:22 PM 35.4086 -112.9242 243° Southwest 383 441 38,000 -435 Level Los Angeles Center
Tue 12:33:24 PM 35.3578 -113.0500 244° Southwest 376 433 37,100 -871 Descending Los Angeles Center
Tue 12:34:26 PM 35.3133 -113.1603 244° Southwest 363 418 36,200 -912 Descending Los Angeles Center
Tue 12:35:29 PM 35.2683 -113.2681 243° Southwest 357 411 35,200 -581 Descending Los Angeles Center
Tue 12:36:30 PM 35.2233 -113.3792 244° Southwest 358 412 35,000 -98 Descending Los Angeles Center
Tue 12:37:32 PM 35.1792 -113.4867 243° Southwest 357 411 35,000  Level Los Angeles Center
Tue 12:38:34 PM 35.1356 -113.5942 244° Southwest 355 409 35,000  Level Los Angeles Center
Tue 12:39:36 PM 35.0922 -113.7003 244° Southwest 353 406 35,000  Level Los Angeles Center
Tue 12:40:37 PM 35.0478 -113.8061 243° Southwest 353 406 35,000 -244 Level Los Angeles Center
Tue 12:41:39 PM 34.9967 -113.9300 243° Southwest 345 397 34,500 -629 Descending Los Angeles Center
Tue 12:42:41 PM 34.9531 -114.0306 242° Southwest 332 382 33,700 -871 Descending Los Angeles Center
Tue 12:43:43 PM 34.9106 -114.1297 242° Southwest 331 381 32,700 -919 Descending Los Angeles Center
Tue 12:44:45 PM 34.8694 -114.2300 243° Southwest 331 381 31,800 -871 Descending Los Angeles Center
Tue 12:45:47 PM 34.8269 -114.3292 242° Southwest 331 381 30,900 -823 Descending Los Angeles Center
Tue 12:46:49 PM 34.7850 -114.4289 243° Southwest 333 383 30,100 -435 Descending Los Angeles Center
Tue 12:47:51 PM 34.7153 -114.5333 231° Southwest 333 383 30,000 -97 Descending Los Angeles Center
Tue 12:48:53 PM 34.6461 -114.6117 223° Southwest 336 387 29,900 -48 Descending Los Angeles Center
Tue 12:49:55 PM 34.5778 -114.6903 223° Southwest 338 389 29,900  Level Los Angeles Center
Tue 12:50:57 PM 34.5103 -114.7686 224° Southwest 337 388 29,900  Level Los Angeles Center
Tue 12:51:59 PM 34.4417 -114.8467 223° Southwest 338 389 29,900 48 Level Los Angeles Center
Tue 12:53:01 PM 34.3744 -114.9267 224° Southwest 339 390 30,000  Climbing Los Angeles Center
Tue 12:54:03 PM 34.3014 -115.0008 220° Southwest 342 394 29,900  Descending Los Angeles Center
Tue 12:55:05 PM 34.2181 -115.0967 224° Southwest 343 395 30,000  Climbing Los Angeles Center
Tue 12:56:07 PM 34.1486 -115.1725 222° Southwest 341 392 29,900  Descending Los Angeles Center
Tue 12:57:09 PM 34.0786 -115.2511 223° Southwest 344 396 30,000  Climbing Los Angeles Center
Tue 12:58:11 PM 34.0083 -115.3294 223° Southwest 343 395 29,900  Descending Los Angeles Center
Tue 12:59:13 PM 33.9389 -115.4072 223° Southwest 342 394 30,000 -97 Climbing Los Angeles Center
Tue 01:00:15 PM 33.8683 -115.4861 223° Southwest 345 397 29,700 -677 Descending Los Angeles Center
Tue 01:01:17 PM 33.7839 -115.5792 222° Southwest 344 396 28,600 -1,016 Descending Los Angeles Center
Tue 01:02:19 PM 33.7156 -115.6544 223° Southwest 337 388 27,600 -968 Descending Los Angeles Center
Tue 01:03:21 PM 33.6483 -115.7300 223° Southwest 332 382 26,600 -919 Descending Los Angeles Center
Tue 01:04:23 PM 33.5903 -115.8117 230° Southwest 327 376 25,700 -1,065 Descending Los Angeles Center
Tue 01:05:25 PM 33.5392 -115.9014 236° Southwest 327 376 24,400 -1,776 Descending Los Angeles Center
Tue 01:06:28 PM 33.4767 -116.0086 235° Southwest 329 379 22,000 -2,160 Descending Los Angeles Center
Tue 01:07:30 PM 33.4256 -116.0964 235° Southwest 323 372 19,900 -2,032 Descending Los Angeles Center
Tue 01:08:32 PM 33.3767 -116.1833 236° Southwest 317 365 17,800 -2,032 Descending Los Angeles Center
Tue 01:09:34 PM 33.3194 -116.2592 228° Southwest 323 372 15,700 -1,984 Descending Los Angeles Center
Tue 01:10:36 PM 33.2414 -116.3056 206° Southwest 316 364 13,700 -1,839 Descending Los Angeles Center
Tue 01:11:38 PM 33.1636 -116.3517 206° Southwest 313 360 11,900 -871 Descending Los Angeles Center
Tue 01:12:40 PM 33.0772 -116.4019 206° Southwest 294 338 11,900 48 Level Los Angeles Center
Tue 01:13:42 PM 33.0086 -116.4422 206° Southwest 286 329 12,000 -387 Climbing Los Angeles Center
Tue 01:14:44 PM 32.9397 -116.4844 207° Southwest 281 323 11,100 -1,403 Descending Los Angeles Center
Tue 01:15:46 PM 32.8806 -116.5233 209° Southwest 264 304 9,100 -1,065 Descending Los Angeles Center
Tue 01:16:48 PM 32.8053 -116.5758 210° Southwest 263 303 8,900 -726 Descending Los Angeles Center
Tue 01:17:50 PM 32.7414 -116.6206 210° Southwest 268 308 7,600 -1,016 Descending Los Angeles Center
Tue 01:18:52 PM 32.6836 -116.6722 217° Southwest 276 318 6,800 -816 Descending Los Angeles Center
Tue 01:19:55 PM 32.6633 -116.7542 254° West 261 300 5,900 -480 Descending Los Angeles Center
Tue 01:20:57 PM 32.6461 -116.8322 255° West 251 289 5,800 -724 Descending Los Angeles Center
Tue 01:21:51 PM 32.6667 -116.9000 290° West 212 244 4,500 -1,000 Descending Southern California TRACON
Tue 01:22:51 PM 32.6833 -116.9667 287° West 176 203 3,900 -850 Descending Southern California TRACON
Tue 01:23:51 PM 32.7000 -117.0167 292° West 172 198 2,800 -900 Descending Southern California TRACON
Tue 01:24:51 PM 32.7000 -117.0667 270° West 161 185 2,100 -800 Descending Southern California TRACON
Tue 01:25:51 PM 32.7167 -117.1167 292° West 141 162 1,200 -876 Descending Southern California TRACON
Tue 01:26:20 PM 32.7197 -117.1311 284° West 151 174 800 -593 Descending Los Angeles Center
Tue 01:27:22 PM 32.7317 -117.1778 287° West 144 166 300 -484 Descending Los Angeles Center

Login

Don't have an account? Register now (free) for customized features, flight alerts, and more!